Arvin, California
Current Conditions -  °F | °C
As of 8:54 AM on Sunday 23 Nov 2014 (Local Time) from KBFL Reporting Station
Overcast Overcast  
Wind Chill: 54°   Ceiling: 1400
Heat Index: 54°   Visibility: 7mi
Dew Point: 46°   Wind: 6mph
Humidity: 75%   Direction: 200°SSW
Pressure: 30.32"   Gusts: NA
Location:  35.21°N, 118.82°W
Report Text: KBFL 231654Z 20005KT 7SM OVC014 12/08 A3032 RMK AO2 SLP265 T01220078
Loading
Personal Weather Stations






























Interactive Weather Map New forecast layout! Learn more

10-Day Weather Forecast

Advertisements
Track Severe Weather on mobile